sensor_id;sensor_type;location;lat;lon;timestamp;temperature;humidity
5086;DHT22;4715;51.660;7.082;2022-12-11T00:02:14;0.30;99.90
5086;DHT22;4715;51.660;7.082;2022-12-11T00:04:36;0.20;99.90
5086;DHT22;4715;51.660;7.082;2022-12-11T00:06:58;0.20;99.90
5086;DHT22;4715;51.660;7.082;2022-12-11T00:09:20;0.20;99.90
5086;DHT22;4715;51.660;7.082;2022-12-11T00:11:42;0.20;99.90
5086;DHT22;4715;51.660;7.082;2022-12-11T00:14:04;0.30;99.90
5086;DHT22;4715;51.660;7.082;2022-12-11T00:16:26;0.30;99.90
5086;DHT22;4715;51.660;7.082;2022-12-11T00:18:49;0.30;99.90
5086;DHT22;4715;51.660;7.082;2022-12-11T00:21:12;0.30;99.90
5086;DHT22;4715;51.660;7.082;2022-12-11T00:23:35;0.30;99.90
5086;DHT22;4715;51.660;7.082;2022-12-11T00:25:57;0.30;99.90
5086;DHT22;4715;51.660;7.082;2022-12-11T00:28:20;0.30;99.90
5086;DHT22;4715;51.660;7.082;2022-12-11T00:30:43;0.30;99.90
5086;DHT22;4715;51.660;7.082;2022-12-11T00:33:05;0.30;99.90
5086;DHT22;4715;51.660;7.082;2022-12-11T00:35:28;0.30;99.90
5086;DHT22;4715;51.660;7.082;2022-12-11T00:37:50;0.30;99.90
5086;DHT22;4715;51.660;7.082;2022-12-11T00:40:11;0.40;99.90
5086;DHT22;4715;51.660;7.082;2022-12-11T00:42:33;0.40;99.90
5086;DHT22;4715;51.660;7.082;2022-12-11T00:44:55;0.40;99.90
5086;DHT22;4715;51.660;7.082;2022-12-11T00:47:17;0.40;99.90
5086;DHT22;4715;51.660;7.082;2022-12-11T00:49:39;0.40;99.90
5086;DHT22;4715;51.660;7.082;2022-12-11T00:52:03;0.40;99.90
5086;DHT22;4715;51.660;7.082;2022-12-11T00:54:24;0.40;99.90
5086;DHT22;4715;51.660;7.082;2022-12-11T00:56:46;0.40;99.90
5086;DHT22;4715;51.660;7.082;2022-12-11T00:59:08;0.50;99.90
5086;DHT22;4715;51.660;7.082;2022-12-11T01:01:31;0.40;99.90
5086;DHT22;4715;51.660;7.082;2022-12-11T01:03:53;0.40;99.90
5086;DHT22;4715;51.660;7.082;2022-12-11T01:06:16;0.40;99.90
5086;DHT22;4715;51.660;7.082;2022-12-11T01:08:40;0.30;99.90
5086;DHT22;4715;51.660;7.082;2022-12-11T01:11:03;0.30;99.90
5086;DHT22;4715;51.660;7.082;2022-12-11T01:13:24;0.30;99.90
5086;DHT22;4715;51.660;7.082;2022-12-11T01:15:46;0.30;99.90
5086;DHT22;4715;51.660;7.082;2022-12-11T01:18:09;0.30;99.90
5086;DHT22;4715;51.660;7.082;2022-12-11T01:20:32;0.30;99.90
5086;DHT22;4715;51.660;7.082;2022-12-11T01:22:57;0.30;99.90
5086;DHT22;4715;51.660;7.082;2022-12-11T01:25:21;0.30;99.90
5086;DHT22;4715;51.660;7.082;2022-12-11T01:27:43;0.30;99.90
5086;DHT22;4715;51.660;7.082;2022-12-11T01:30:07;0.40;99.90
5086;DHT22;4715;51.660;7.082;2022-12-11T01:32:29;0.40;99.90
5086;DHT22;4715;51.660;7.082;2022-12-11T01:34:51;0.40;99.90
5086;DHT22;4715;51.660;7.082;2022-12-11T01:37:13;0.40;99.90
5086;DHT22;4715;51.660;7.082;2022-12-11T01:39:36;0.40;99.90
5086;DHT22;4715;51.660;7.082;2022-12-11T01:42:00;0.40;99.90
5086;DHT22;4715;51.660;7.082;2022-12-11T01:47:19;0.40;99.90
5086;DHT22;4715;51.660;7.082;2022-12-11T01:49:41;0.40;99.90
5086;DHT22;4715;51.660;7.082;2022-12-11T01:52:06;0.40;99.90
5086;DHT22;4715;51.660;7.082;2022-12-11T01:54:30;0.40;99.90
5086;DHT22;4715;51.660;7.082;2022-12-11T01:56:56;0.40;99.90
5086;DHT22;4715;51.660;7.082;2022-12-11T01:59:23;0.50;99.90
5086;DHT22;4715;51.660;7.082;2022-12-11T02:01:49;0.50;99.90
5086;DHT22;4715;51.660;7.082;2022-12-11T02:04:12;0.50;99.90
5086;DHT22;4715;51.660;7.082;2022-12-11T02:06:37;0.50;99.90
5086;DHT22;4715;51.660;7.082;2022-12-11T02:09:00;0.50;99.90
5086;DHT22;4715;51.660;7.082;2022-12-11T02:11:28;0.50;99.90
5086;DHT22;4715;51.660;7.082;2022-12-11T02:13:58;0.50;99.90
5086;DHT22;4715;51.660;7.082;2022-12-11T02:16:33;0.50;99.90
5086;DHT22;4715;51.660;7.082;2022-12-11T02:19:02;0.50;99.90
5086;DHT22;4715;51.660;7.082;2022-12-11T02:21:32;0.50;99.90
5086;DHT22;4715;51.660;7.082;2022-12-11T02:24:06;0.40;99.90
5086;DHT22;4715;51.660;7.082;2022-12-11T02:26:56;0.50;99.90
5086;DHT22;4715;51.660;7.082;2022-12-11T02:29:28;0.40;99.90
5086;DHT22;4715;51.660;7.082;2022-12-11T02:31:55;0.40;99.90
5086;DHT22;4715;51.660;7.082;2022-12-11T02:34:22;0.50;99.90
5086;DHT22;4715;51.660;7.082;2022-12-11T02:36:51;0.50;99.90
5086;DHT22;4715;51.660;7.082;2022-12-11T02:39:15;0.50;99.90
5086;DHT22;4715;51.660;7.082;2022-12-11T02:41:39;0.50;99.90
5086;DHT22;4715;51.660;7.082;2022-12-11T02:44:02;0.50;99.90
5086;DHT22;4715;51.660;7.082;2022-12-11T02:46:28;0.50;99.90
5086;DHT22;4715;51.660;7.082;2022-12-11T02:48:51;0.60;99.90
5086;DHT22;4715;51.660;7.082;2022-12-11T02:51:20;0.60;99.90
5086;DHT22;4715;51.660;7.082;2022-12-11T02:53:42;0.60;99.90
5086;DHT22;4715;51.660;7.082;2022-12-11T02:56:10;0.60;99.90
5086;DHT22;4715;51.660;7.082;2022-12-11T02:58:33;0.60;99.90
5086;DHT22;4715;51.660;7.082;2022-12-11T03:00:58;0.60;99.90
5086;DHT22;4715;51.660;7.082;2022-12-11T03:03:22;0.60;99.90
5086;DHT22;4715;51.660;7.082;2022-12-11T03:05:44;0.60;99.90
5086;DHT22;4715;51.660;7.082;2022-12-11T03:08:07;0.60;99.90
5086;DHT22;4715;51.660;7.082;2022-12-11T03:10:29;0.60;99.90
5086;DHT22;4715;51.660;7.082;2022-12-11T03:12:52;0.60;99.90
5086;DHT22;4715;51.660;7.082;2022-12-11T03:15:20;0.60;99.90
5086;DHT22;4715;51.660;7.082;2022-12-11T03:17:49;0.60;99.90
5086;DHT22;4715;51.660;7.082;2022-12-11T03:20:25;0.60;99.90
5086;DHT22;4715;51.660;7.082;2022-12-11T03:22:54;0.60;99.90
5086;DHT22;4715;51.660;7.082;2022-12-11T03:25:21;0.60;99.90
5086;DHT22;4715;51.660;7.082;2022-12-11T03:27:47;0.60;99.90
5086;DHT22;4715;51.660;7.082;2022-12-11T03:30:13;0.60;99.90
5086;DHT22;4715;51.660;7.082;2022-12-11T03:32:43;0.60;99.90
5086;DHT22;4715;51.660;7.082;2022-12-11T03:35:12;0.60;99.90
5086;DHT22;4715;51.660;7.082;2022-12-11T03:37:38;0.60;99.90
5086;DHT22;4715;51.660;7.082;2022-12-11T03:40:04;0.60;99.90
5086;DHT22;4715;51.660;7.082;2022-12-11T03:42:28;0.60;99.90
5086;DHT22;4715;51.660;7.082;2022-12-11T03:44:51;0.60;99.90
5086;DHT22;4715;51.660;7.082;2022-12-11T03:47:18;0.60;99.90
5086;DHT22;4715;51.660;7.082;2022-12-11T03:49:41;0.60;99.90
5086;DHT22;4715;51.660;7.082;2022-12-11T03:52:05;0.60;99.90
5086;DHT22;4715;51.660;7.082;2022-12-11T03:54:30;0.60;99.90
5086;DHT22;4715;51.660;7.082;2022-12-11T03:56:55;0.60;99.90
5086;DHT22;4715;51.660;7.082;2022-12-11T03:59:18;0.70;99.90
5086;DHT22;4715;51.660;7.082;2022-12-11T04:01:40;0.70;99.90
5086;DHT22;4715;51.660;7.082;2022-12-11T04:04:03;0.70;99.90
5086;DHT22;4715;51.660;7.082;2022-12-11T04:06:25;0.70;99.90
5086;DHT22;4715;51.660;7.082;2022-12-11T04:08:46;0.70;99.90
5086;DHT22;4715;51.660;7.082;2022-12-11T04:11:10;0.70;99.90
5086;DHT22;4715;51.660;7.082;2022-12-11T04:13:49;0.60;99.90
5086;DHT22;4715;51.660;7.082;2022-12-11T04:16:32;0.70;99.90
5086;DHT22;4715;51.660;7.082;2022-12-11T04:18:52;0.70;99.90
5086;DHT22;4715;51.660;7.082;2022-12-11T04:21:32;0.70;99.90
5086;DHT22;4715;51.660;7.082;2022-12-11T04:24:25;0.70;99.90
5086;DHT22;4715;51.660;7.082;2022-12-11T04:26:50;0.70;99.90
5086;DHT22;4715;51.660;7.082;2022-12-11T04:29:12;0.70;99.90
5086;DHT22;4715;51.660;7.082;2022-12-11T04:31:34;0.80;99.90
5086;DHT22;4715;51.660;7.082;2022-12-11T04:33:56;0.80;99.90
5086;DHT22;4715;51.660;7.082;2022-12-11T04:36:19;0.80;99.90
5086;DHT22;4715;51.660;7.082;2022-12-11T04:38:41;0.80;99.90
5086;DHT22;4715;51.660;7.082;2022-12-11T04:41:05;0.90;99.90
5086;DHT22;4715;51.660;7.082;2022-12-11T04:43:29;0.90;99.90
5086;DHT22;4715;51.660;7.082;2022-12-11T04:45:59;0.90;99.90
5086;DHT22;4715;51.660;7.082;2022-12-11T04:48:21;0.90;99.90
5086;DHT22;4715;51.660;7.082;2022-12-11T04:50:43;0.90;99.90
5086;DHT22;4715;51.660;7.082;2022-12-11T04:53:06;1.00;99.90
5086;DHT22;4715;51.660;7.082;2022-12-11T04:55:27;1.00;99.90
5086;DHT22;4715;51.660;7.082;2022-12-11T04:57:49;1.00;99.90
5086;DHT22;4715;51.660;7.082;2022-12-11T05:00:14;1.00;99.90
5086;DHT22;4715;51.660;7.082;2022-12-11T05:02:37;1.10;99.90
5086;DHT22;4715;51.660;7.082;2022-12-11T05:04:59;1.10;99.90
5086;DHT22;4715;51.660;7.082;2022-12-11T05:07:20;1.10;99.90
5086;DHT22;4715;51.660;7.082;2022-12-11T05:09:42;1.20;99.90
5086;DHT22;4715;51.660;7.082;2022-12-11T05:12:04;1.20;99.90
5086;DHT22;4715;51.660;7.082;2022-12-11T05:14:26;1.20;99.90
5086;DHT22;4715;51.660;7.082;2022-12-11T05:16:52;1.20;99.90
5086;DHT22;4715;51.660;7.082;2022-12-11T05:19:14;1.20;99.90
5086;DHT22;4715;51.660;7.082;2022-12-11T05:21:36;1.20;99.90
5086;DHT22;4715;51.660;7.082;2022-12-11T05:24:01;1.20;99.90
5086;DHT22;4715;51.660;7.082;2022-12-11T05:26:23;1.20;99.90
5086;DHT22;4715;51.660;7.082;2022-12-11T05:28:45;1.10;99.90
5086;DHT22;4715;51.660;7.082;2022-12-11T05:31:11;1.10;99.90
5086;DHT22;4715;51.660;7.082;2022-12-11T05:33:36;1.10;99.90
5086;DHT22;4715;51.660;7.082;2022-12-11T05:35:58;1.10;99.90
5086;DHT22;4715;51.660;7.082;2022-12-11T05:38:20;1.20;99.90
5086;DHT22;4715;51.660;7.082;2022-12-11T05:40:42;1.20;99.90
5086;DHT22;4715;51.660;7.082;2022-12-11T05:43:04;1.20;99.90
5086;DHT22;4715;51.660;7.082;2022-12-11T05:45:25;1.20;99.90
5086;DHT22;4715;51.660;7.082;2022-12-11T05:47:48;1.20;99.90
5086;DHT22;4715;51.660;7.082;2022-12-11T05:50:11;1.30;99.90
5086;DHT22;4715;51.660;7.082;2022-12-11T05:52:33;1.30;99.90
5086;DHT22;4715;51.660;7.082;2022-12-11T05:54:55;1.30;99.90
5086;DHT22;4715;51.660;7.082;2022-12-11T05:57:16;1.30;99.90
5086;DHT22;4715;51.660;7.082;2022-12-11T05:59:38;1.20;99.90
5086;DHT22;4715;51.660;7.082;2022-12-11T06:02:03;1.20;99.90
5086;DHT22;4715;51.660;7.082;2022-12-11T06:04:25;1.20;99.90
5086;DHT22;4715;51.660;7.082;2022-12-11T06:06:48;1.20;99.90
5086;DHT22;4715;51.660;7.082;2022-12-11T06:09:12;1.20;99.90
5086;DHT22;4715;51.660;7.082;2022-12-11T06:11:35;1.30;99.90
5086;DHT22;4715;51.660;7.082;2022-12-11T06:13:57;1.30;99.90
5086;DHT22;4715;51.660;7.082;2022-12-11T06:16:19;1.30;99.90
5086;DHT22;4715;51.660;7.082;2022-12-11T06:18:43;1.30;99.90
5086;DHT22;4715;51.660;7.082;2022-12-11T06:21:13;1.30;99.90
5086;DHT22;4715;51.660;7.082;2022-12-11T06:23:36;1.30;99.90
5086;DHT22;4715;51.660;7.082;2022-12-11T06:25:58;1.30;99.90
5086;DHT22;4715;51.660;7.082;2022-12-11T06:28:20;1.30;99.90
5086;DHT22;4715;51.660;7.082;2022-12-11T06:30:42;1.30;99.90
5086;DHT22;4715;51.660;7.082;2022-12-11T06:33:04;1.30;99.90
5086;DHT22;4715;51.660;7.082;2022-12-11T06:35:26;1.30;99.90
5086;DHT22;4715;51.660;7.082;2022-12-11T06:37:48;1.30;99.90
5086;DHT22;4715;51.660;7.082;2022-12-11T06:40:11;1.30;99.90
5086;DHT22;4715;51.660;7.082;2022-12-11T06:42:34;1.30;99.90
5086;DHT22;4715;51.660;7.082;2022-12-11T06:44:56;1.30;99.90
5086;DHT22;4715;51.660;7.082;2022-12-11T06:47:19;1.30;99.90
5086;DHT22;4715;51.660;7.082;2022-12-11T06:49:41;1.30;99.90
5086;DHT22;4715;51.660;7.082;2022-12-11T06:52:05;1.30;99.90
5086;DHT22;4715;51.660;7.082;2022-12-11T06:54:27;1.40;99.90
5086;DHT22;4715;51.660;7.082;2022-12-11T06:56:51;1.40;99.90
5086;DHT22;4715;51.660;7.082;2022-12-11T06:59:12;1.40;99.90
5086;DHT22;4715;51.660;7.082;2022-12-11T07:01:34;1.40;99.90
5086;DHT22;4715;51.660;7.082;2022-12-11T07:03:58;1.40;99.90
5086;DHT22;4715;51.660;7.082;2022-12-11T07:06:23;1.40;99.90
5086;DHT22;4715;51.660;7.082;2022-12-11T07:08:47;1.40;99.90
5086;DHT22;4715;51.660;7.082;2022-12-11T07:11:11;1.40;99.90
5086;DHT22;4715;51.660;7.082;2022-12-11T07:13:34;1.40;99.90
5086;DHT22;4715;51.660;7.082;2022-12-11T07:15:57;1.40;99.90
5086;DHT22;4715;51.660;7.082;2022-12-11T07:18:19;1.40;99.90
5086;DHT22;4715;51.660;7.082;2022-12-11T07:20:41;1.40;99.90
5086;DHT22;4715;51.660;7.082;2022-12-11T07:23:04;1.40;99.90
5086;DHT22;4715;51.660;7.082;2022-12-11T07:25:26;1.40;99.90
5086;DHT22;4715;51.660;7.082;2022-12-11T07:27:47;1.50;99.90
5086;DHT22;4715;51.660;7.082;2022-12-11T07:30:13;1.50;99.90
5086;DHT22;4715;51.660;7.082;2022-12-11T07:32:35;1.60;99.90
5086;DHT22;4715;51.660;7.082;2022-12-11T07:34:57;1.50;99.90
5086;DHT22;4715;51.660;7.082;2022-12-11T07:37:20;1.60;99.90
5086;DHT22;4715;51.660;7.082;2022-12-11T07:39:42;1.60;99.90
5086;DHT22;4715;51.660;7.082;2022-12-11T07:42:04;1.60;99.90
5086;DHT22;4715;51.660;7.082;2022-12-11T07:44:26;1.60;99.90
5086;DHT22;4715;51.660;7.082;2022-12-11T07:46:50;1.60;99.90
5086;DHT22;4715;51.660;7.082;2022-12-11T07:49:13;1.60;99.90
5086;DHT22;4715;51.660;7.082;2022-12-11T07:51:36;1.60;99.90
5086;DHT22;4715;51.660;7.082;2022-12-11T07:53:59;1.60;99.90
5086;DHT22;4715;51.660;7.082;2022-12-11T07:56:22;1.60;99.90
5086;DHT22;4715;51.660;7.082;2022-12-11T07:58:45;1.60;99.90
5086;DHT22;4715;51.660;7.082;2022-12-11T08:01:10;1.60;99.90
5086;DHT22;4715;51.660;7.082;2022-12-11T08:03:37;1.60;99.90
5086;DHT22;4715;51.660;7.082;2022-12-11T08:05:59;1.60;99.90
5086;DHT22;4715;51.660;7.082;2022-12-11T08:08:21;1.50;99.90
5086;DHT22;4715;51.660;7.082;2022-12-11T08:10:43;1.60;99.90
5086;DHT22;4715;51.660;7.082;2022-12-11T08:13:05;1.60;99.90
5086;DHT22;4715;51.660;7.082;2022-12-11T08:15:27;1.60;99.90
5086;DHT22;4715;51.660;7.082;2022-12-11T08:17:49;1.60;99.90
5086;DHT22;4715;51.660;7.082;2022-12-11T08:20:12;1.60;99.90
5086;DHT22;4715;51.660;7.082;2022-12-11T08:22:34;1.60;99.90
5086;DHT22;4715;51.660;7.082;2022-12-11T08:24:56;1.50;99.90
5086;DHT22;4715;51.660;7.082;2022-12-11T08:27:18;1.50;99.90
5086;DHT22;4715;51.660;7.082;2022-12-11T08:29:40;1.50;99.90
5086;DHT22;4715;51.660;7.082;2022-12-11T08:32:02;1.50;99.90
5086;DHT22;4715;51.660;7.082;2022-12-11T08:34:24;1.50;99.90
5086;DHT22;4715;51.660;7.082;2022-12-11T08:36:47;1.50;99.90
5086;DHT22;4715;51.660;7.082;2022-12-11T08:39:09;1.50;99.90
5086;DHT22;4715;51.660;7.082;2022-12-11T08:41:31;1.40;99.90
5086;DHT22;4715;51.660;7.082;2022-12-11T08:43:54;1.40;99.90
5086;DHT22;4715;51.660;7.082;2022-12-11T08:46:16;1.40;99.90
5086;DHT22;4715;51.660;7.082;2022-12-11T08:48:40;1.40;99.90
5086;DHT22;4715;51.660;7.082;2022-12-11T08:51:04;1.40;99.90
5086;DHT22;4715;51.660;7.082;2022-12-11T08:53:29;1.40;99.90
5086;DHT22;4715;51.660;7.082;2022-12-11T08:55:52;1.40;99.90
5086;DHT22;4715;51.660;7.082;2022-12-11T08:58:14;1.40;99.90
5086;DHT22;4715;51.660;7.082;2022-12-11T09:00:36;1.40;99.90
5086;DHT22;4715;51.660;7.082;2022-12-11T09:02:58;1.40;99.90
5086;DHT22;4715;51.660;7.082;2022-12-11T09:05:21;1.30;99.90
5086;DHT22;4715;51.660;7.082;2022-12-11T09:07:43;1.30;99.90
5086;DHT22;4715;51.660;7.082;2022-12-11T09:10:07;1.30;99.90
5086;DHT22;4715;51.660;7.082;2022-12-11T09:12:29;1.30;99.90
5086;DHT22;4715;51.660;7.082;2022-12-11T09:14:52;1.40;99.90
5086;DHT22;4715;51.660;7.082;2022-12-11T09:17:17;1.40;99.90
5086;DHT22;4715;51.660;7.082;2022-12-11T09:19:39;1.50;99.90
5086;DHT22;4715;51.660;7.082;2022-12-11T09:22:02;1.50;99.90
5086;DHT22;4715;51.660;7.082;2022-12-11T09:24:25;1.50;99.90
5086;DHT22;4715;51.660;7.082;2022-12-11T09:26:48;1.50;99.90
5086;DHT22;4715;51.660;7.082;2022-12-11T09:29:11;1.60;99.90
5086;DHT22;4715;51.660;7.082;2022-12-11T09:31:36;1.60;99.90
5086;DHT22;4715;51.660;7.082;2022-12-11T09:34:00;1.60;99.90
5086;DHT22;4715;51.660;7.082;2022-12-11T09:36:23;1.60;99.90
5086;DHT22;4715;51.660;7.082;2022-12-11T09:38:45;1.60;99.90
5086;DHT22;4715;51.660;7.082;2022-12-11T09:41:25;1.50;99.90
5086;DHT22;4715;51.660;7.082;2022-12-11T09:43:58;1.60;99.90
5086;DHT22;4715;51.660;7.082;2022-12-11T09:46:23;1.60;99.90
5086;DHT22;4715;51.660;7.082;2022-12-11T09:48:47;1.50;99.90
5086;DHT22;4715;51.660;7.082;2022-12-11T09:51:16;1.60;99.90
5086;DHT22;4715;51.660;7.082;2022-12-11T09:53:39;1.60;99.90
5086;DHT22;4715;51.660;7.082;2022-12-11T09:56:05;1.60;99.90
5086;DHT22;4715;51.660;7.082;2022-12-11T09:58:44;1.60;99.90
5086;DHT22;4715;51.660;7.082;2022-12-11T10:01:16;1.60;99.90
5086;DHT22;4715;51.660;7.082;2022-12-11T10:03:54;1.50;99.90
5086;DHT22;4715;51.660;7.082;2022-12-11T10:06:21;1.50;99.90
5086;DHT22;4715;51.660;7.082;2022-12-11T10:08:56;1.50;99.90
5086;DHT22;4715;51.660;7.082;2022-12-11T10:11:38;1.50;99.90
5086;DHT22;4715;51.660;7.082;2022-12-11T10:14:07;1.50;99.90
5086;DHT22;4715;51.660;7.082;2022-12-11T10:16:39;1.50;99.90
5086;DHT22;4715;51.660;7.082;2022-12-11T10:19:01;1.40;99.90
5086;DHT22;4715;51.660;7.082;2022-12-11T10:21:24;1.40;99.90
5086;DHT22;4715;51.660;7.082;2022-12-11T10:23:53;1.40;99.90
5086;DHT22;4715;51.660;7.082;2022-12-11T10:26:19;1.40;99.90
5086;DHT22;4715;51.660;7.082;2022-12-11T10:28:42;1.40;99.90
5086;DHT22;4715;51.660;7.082;2022-12-11T10:31:10;1.40;99.90
5086;DHT22;4715;51.660;7.082;2022-12-11T10:33:42;1.40;99.90
5086;DHT22;4715;51.660;7.082;2022-12-11T10:36:17;1.40;99.90
5086;DHT22;4715;51.660;7.082;2022-12-11T10:38:43;1.40;99.90
5086;DHT22;4715;51.660;7.082;2022-12-11T10:41:11;1.40;99.90
5086;DHT22;4715;51.660;7.082;2022-12-11T10:43:36;1.40;99.90
5086;DHT22;4715;51.660;7.082;2022-12-11T10:45:59;1.40;99.90
5086;DHT22;4715;51.660;7.082;2022-12-11T10:48:21;1.40;99.90
5086;DHT22;4715;51.660;7.082;2022-12-11T10:50:56;1.40;99.90
5086;DHT22;4715;51.660;7.082;2022-12-11T10:53:19;1.40;99.90
5086;DHT22;4715;51.660;7.082;2022-12-11T10:55:43;1.40;99.90
5086;DHT22;4715;51.660;7.082;2022-12-11T10:58:11;1.40;99.90
5086;DHT22;4715;51.660;7.082;2022-12-11T11:00:38;1.40;99.90
5086;DHT22;4715;51.660;7.082;2022-12-11T11:03:03;1.40;99.90
5086;DHT22;4715;51.660;7.082;2022-12-11T11:05:29;1.40;99.90
5086;DHT22;4715;51.660;7.082;2022-12-11T11:08:10;1.40;99.90
5086;DHT22;4715;51.660;7.082;2022-12-11T11:10:33;1.40;99.90
5086;DHT22;4715;51.660;7.082;2022-12-11T11:13:00;1.40;99.90
5086;DHT22;4715;51.660;7.082;2022-12-11T11:15:25;1.40;99.90
5086;DHT22;4715;51.660;7.082;2022-12-11T11:17:52;1.40;99.90
5086;DHT22;4715;51.660;7.082;2022-12-11T11:20:17;1.40;99.90
5086;DHT22;4715;51.660;7.082;2022-12-11T11:22:44;1.50;99.90
5086;DHT22;4715;51.660;7.082;2022-12-11T11:25:19;1.50;99.90
5086;DHT22;4715;51.660;7.082;2022-12-11T11:28:14;1.50;99.90
5086;DHT22;4715;51.660;7.082;2022-12-11T11:30:40;1.40;99.90
5086;DHT22;4715;51.660;7.082;2022-12-11T11:33:05;1.40;99.90
5086;DHT22;4715;51.660;7.082;2022-12-11T11:35:32;1.50;99.90
5086;DHT22;4715;51.660;7.082;2022-12-11T11:38:12;1.50;99.90
5086;DHT22;4715;51.660;7.082;2022-12-11T11:40:43;1.50;99.90
5086;DHT22;4715;51.660;7.082;2022-12-11T11:43:17;1.60;99.90
5086;DHT22;4715;51.660;7.082;2022-12-11T11:45:48;1.50;99.90
5086;DHT22;4715;51.660;7.082;2022-12-11T11:48:30;1.60;99.90
5086;DHT22;4715;51.660;7.082;2022-12-11T11:50:55;1.50;99.90
5086;DHT22;4715;51.660;7.082;2022-12-11T11:53:23;1.50;99.90
5086;DHT22;4715;51.660;7.082;2022-12-11T11:56:06;1.50;99.90
5086;DHT22;4715;51.660;7.082;2022-12-11T11:58:38;1.50;99.90
5086;DHT22;4715;51.660;7.082;2022-12-11T12:01:02;1.50;99.90
5086;DHT22;4715;51.660;7.082;2022-12-11T12:03:27;1.40;99.90
5086;DHT22;4715;51.660;7.082;2022-12-11T12:05:54;1.50;99.90
5086;DHT22;4715;51.660;7.082;2022-12-11T12:08:27;1.50;99.90
5086;DHT22;4715;51.660;7.082;2022-12-11T12:10:58;1.50;99.90
5086;DHT22;4715;51.660;7.082;2022-12-11T12:13:29;1.60;99.90
5086;DHT22;4715;51.660;7.082;2022-12-11T12:15:55;1.60;99.90
5086;DHT22;4715;51.660;7.082;2022-12-11T12:18:26;1.60;99.90
5086;DHT22;4715;51.660;7.082;2022-12-11T12:21:01;1.60;99.90
5086;DHT22;4715;51.660;7.082;2022-12-11T12:23:41;1.60;99.90
5086;DHT22;4715;51.660;7.082;2022-12-11T12:26:11;1.70;99.90
5086;DHT22;4715;51.660;7.082;2022-12-11T12:28:40;1.70;99.90
5086;DHT22;4715;51.660;7.082;2022-12-11T12:31:16;1.70;99.90
5086;DHT22;4715;51.660;7.082;2022-12-11T12:33:52;1.70;99.90
5086;DHT22;4715;51.660;7.082;2022-12-11T12:36:25;1.70;99.90
5086;DHT22;4715;51.660;7.082;2022-12-11T12:38:52;1.70;99.90
5086;DHT22;4715;51.660;7.082;2022-12-11T12:41:21;1.70;99.90
5086;DHT22;4715;51.660;7.082;2022-12-11T12:43:59;1.70;99.90
5086;DHT22;4715;51.660;7.082;2022-12-11T12:46:34;1.70;99.90
5086;DHT22;4715;51.660;7.082;2022-12-11T12:48:59;1.70;99.90
5086;DHT22;4715;51.660;7.082;2022-12-11T12:51:27;1.70;99.90
5086;DHT22;4715;51.660;7.082;2022-12-11T12:53:53;1.70;99.90
5086;DHT22;4715;51.660;7.082;2022-12-11T12:56:18;1.70;99.90
5086;DHT22;4715;51.660;7.082;2022-12-11T12:58:41;1.70;99.90
5086;DHT22;4715;51.660;7.082;2022-12-11T13:01:08;1.70;99.90
5086;DHT22;4715;51.660;7.082;2022-12-11T13:03:36;1.70;99.90
5086;DHT22;4715;51.660;7.082;2022-12-11T13:06:09;1.70;99.90
5086;DHT22;4715;51.660;7.082;2022-12-11T13:08:41;1.70;99.90
5086;DHT22;4715;51.660;7.082;2022-12-11T13:11:07;1.70;99.90
5086;DHT22;4715;51.660;7.082;2022-12-11T13:13:36;1.70;99.90
5086;DHT22;4715;51.660;7.082;2022-12-11T13:16:26;1.70;99.90
5086;DHT22;4715;51.660;7.082;2022-12-11T13:18:54;1.70;99.90
5086;DHT22;4715;51.660;7.082;2022-12-11T13:21:25;1.70;99.90
5086;DHT22;4715;51.660;7.082;2022-12-11T13:23:48;1.70;99.90
5086;DHT22;4715;51.660;7.082;2022-12-11T13:26:10;1.60;99.90
5086;DHT22;4715;51.660;7.082;2022-12-11T13:28:46;1.60;99.90
5086;DHT22;4715;51.660;7.082;2022-12-11T13:31:30;1.70;99.90
5086;DHT22;4715;51.660;7.082;2022-12-11T13:33:54;1.70;99.90
5086;DHT22;4715;51.660;7.082;2022-12-11T13:36:27;1.70;99.90
5086;DHT22;4715;51.660;7.082;2022-12-11T13:38:53;1.70;99.90
5086;DHT22;4715;51.660;7.082;2022-12-11T13:41:19;1.80;99.90
5086;DHT22;4715;51.660;7.082;2022-12-11T13:43:46;1.80;99.90
5086;DHT22;4715;51.660;7.082;2022-12-11T13:46:12;1.80;99.90
5086;DHT22;4715;51.660;7.082;2022-12-11T13:48:37;1.90;99.90
5086;DHT22;4715;51.660;7.082;2022-12-11T13:51:00;1.90;99.90
5086;DHT22;4715;51.660;7.082;2022-12-11T13:53:26;1.90;99.90
5086;DHT22;4715;51.660;7.082;2022-12-11T13:55:55;2.00;99.90
5086;DHT22;4715;51.660;7.082;2022-12-11T13:58:19;2.00;99.90
5086;DHT22;4715;51.660;7.082;2022-12-11T14:00:52;2.00;99.90
5086;DHT22;4715;51.660;7.082;2022-12-11T14:03:14;2.00;99.90
5086;DHT22;4715;51.660;7.082;2022-12-11T14:05:40;2.00;99.90
5086;DHT22;4715;51.660;7.082;2022-12-11T14:08:06;2.00;99.90
5086;DHT22;4715;51.660;7.082;2022-12-11T14:10:30;2.10;99.90
5086;DHT22;4715;51.660;7.082;2022-12-11T14:12:58;2.10;99.90
5086;DHT22;4715;51.660;7.082;2022-12-11T14:15:21;2.10;99.90
5086;DHT22;4715;51.660;7.082;2022-12-11T14:17:45;2.10;99.90
5086;DHT22;4715;51.660;7.082;2022-12-11T14:20:16;2.10;99.90
5086;DHT22;4715;51.660;7.082;2022-12-11T14:22:42;2.10;99.90
5086;DHT22;4715;51.660;7.082;2022-12-11T14:25:20;2.10;99.90
5086;DHT22;4715;51.660;7.082;2022-12-11T14:27:47;2.10;99.90
5086;DHT22;4715;51.660;7.082;2022-12-11T14:30:10;2.10;99.90
5086;DHT22;4715;51.660;7.082;2022-12-11T14:32:35;2.10;99.90
5086;DHT22;4715;51.660;7.082;2022-12-11T14:35:00;2.10;99.90
5086;DHT22;4715;51.660;7.082;2022-12-11T14:37:24;2.10;99.90
5086;DHT22;4715;51.660;7.082;2022-12-11T14:39:55;2.10;99.90
5086;DHT22;4715;51.660;7.082;2022-12-11T14:42:19;2.10;99.90
5086;DHT22;4715;51.660;7.082;2022-12-11T14:44:48;2.10;99.90
5086;DHT22;4715;51.660;7.082;2022-12-11T14:47:14;2.10;99.90
5086;DHT22;4715;51.660;7.082;2022-12-11T14:49:43;2.10;99.90
5086;DHT22;4715;51.660;7.082;2022-12-11T14:52:15;2.10;99.90
5086;DHT22;4715;51.660;7.082;2022-12-11T14:54:41;2.10;99.90
5086;DHT22;4715;51.660;7.082;2022-12-11T14:57:06;2.00;99.90
5086;DHT22;4715;51.660;7.082;2022-12-11T14:59:29;1.90;99.90
5086;DHT22;4715;51.660;7.082;2022-12-11T15:02:00;1.90;99.90
5086;DHT22;4715;51.660;7.082;2022-12-11T15:04:27;1.90;99.90
5086;DHT22;4715;51.660;7.082;2022-12-11T15:06:50;1.90;99.90
5086;DHT22;4715;51.660;7.082;2022-12-11T15:09:19;1.80;99.90
5086;DHT22;4715;51.660;7.082;2022-12-11T15:11:42;1.80;99.90
5086;DHT22;4715;51.660;7.082;2022-12-11T15:14:10;1.80;99.90
5086;DHT22;4715;51.660;7.082;2022-12-11T15:16:37;1.80;99.90
5086;DHT22;4715;51.660;7.082;2022-12-11T15:19:01;1.80;99.90
5086;DHT22;4715;51.660;7.082;2022-12-11T15:21:27;1.80;99.90
5086;DHT22;4715;51.660;7.082;2022-12-11T15:23:52;1.80;99.90
5086;DHT22;4715;51.660;7.082;2022-12-11T15:26:16;1.80;99.90
5086;DHT22;4715;51.660;7.082;2022-12-11T15:28:38;1.80;99.90
5086;DHT22;4715;51.660;7.082;2022-12-11T15:31:03;1.80;99.90
5086;DHT22;4715;51.660;7.082;2022-12-11T15:33:26;1.80;99.90
5086;DHT22;4715;51.660;7.082;2022-12-11T15:36:02;1.90;99.90
5086;DHT22;4715;51.660;7.082;2022-12-11T15:38:31;1.90;99.90
5086;DHT22;4715;51.660;7.082;2022-12-11T15:40:55;1.90;99.90
5086;DHT22;4715;51.660;7.082;2022-12-11T15:43:18;1.90;99.90
5086;DHT22;4715;51.660;7.082;2022-12-11T15:45:41;1.90;99.90
5086;DHT22;4715;51.660;7.082;2022-12-11T15:48:03;1.90;99.90
5086;DHT22;4715;51.660;7.082;2022-12-11T15:50:27;1.90;99.90
5086;DHT22;4715;51.660;7.082;2022-12-11T15:52:51;2.00;99.90
5086;DHT22;4715;51.660;7.082;2022-12-11T15:55:14;2.00;99.90
5086;DHT22;4715;51.660;7.082;2022-12-11T15:57:36;2.00;99.90
5086;DHT22;4715;51.660;7.082;2022-12-11T15:59:59;2.00;99.90
5086;DHT22;4715;51.660;7.082;2022-12-11T16:02:22;2.00;99.90
5086;DHT22;4715;51.660;7.082;2022-12-11T16:04:46;2.00;99.90
5086;DHT22;4715;51.660;7.082;2022-12-11T16:07:14;1.90;99.90
5086;DHT22;4715;51.660;7.082;2022-12-11T16:09:36;1.90;99.90